»·PEaware :: SWR236 LSZH-ESSA

SWR236 :: LSZH-ESSA

FLIGHT INFORMATION

Flight Status: Arrived
Operator:
Swiss Airlines
More flights by this operator :: More flights under this callsign
Pilot: Kenny J. (11300)
Aircraft: AIRBUS A320
(A320)
More flights by this aircraft type
Origin: LSZH Zurich
Switzerland
Destination: ESSA Arlanda
Sweden
More flights between these airports :: More routes between these airports
Route: DEGE2R DEGES Z5 ROMGA Z1 ETAGO DCT TIKNI UN746 KENIG DCT OKAGA DCT VIBAR Z227 NILUG NILU1S
File this flight plan on PilotEdge
Remarks:
Altitude:
(Current/Filed)
33,000ft
Speed:
(Current/Filed)
310kts
Departed: 06-Feb-17 04:44 AM
Arrived: 06-Feb-17 06:56 AM
Distance/Time
Traveled:
802nm/2:12
Distance/Time
To Go:
Arrived

Flight Plot

Page will automatically refresh every two minutes.


Map Options




Map Legend


Flown Route
Filed Route
Departure Airport
Arrival Airport
Navaid (VOR, NDB)
Fix

Horizontal Profiles

Position Reports

Time Latitude Longitude Heading Altitude Ground
Speed
06-Feb-17 04:22 47.460687 8.553580 5 1430ft 0kts
06-Feb-17 04:23 47.460687 8.553580 5 1430ft 0kts
06-Feb-17 04:24 47.460687 8.553580 5 1430ft 0kts
06-Feb-17 04:25 47.460687 8.553580 5 1430ft 0kts
06-Feb-17 04:26 47.460687 8.553580 5 1430ft 0kts
06-Feb-17 04:27 47.460687 8.553580 5 1430ft 0kts
06-Feb-17 04:28 47.460687 8.553580 5 1430ft 0kts
06-Feb-17 04:29 47.460687 8.553580 5 1430ft 0kts
06-Feb-17 04:30 47.460687 8.553580 5 1430ft 0kts
06-Feb-17 04:31 47.460687 8.553580 5 1430ft 0kts
06-Feb-17 04:32 47.460551 8.553559 5 1430ft 2kts
06-Feb-17 04:33 47.460150 8.553497 5 1430ft 0kts
06-Feb-17 04:34 47.460150 8.553497 5 1430ft 0kts
06-Feb-17 04:35 47.460151 8.553497 5 1430ft 0kts
06-Feb-17 04:36 47.460151 8.553497 5 1430ft 0kts
06-Feb-17 04:37 47.460151 8.553497 5 1430ft 0kts
06-Feb-17 04:38 47.460151 8.553497 5 1430ft 0kts
06-Feb-17 04:39 47.460404 8.551115 316 1430ft 16kts
06-Feb-17 04:40 47.459806 8.547101 150 1430ft 23kts
06-Feb-17 04:41 47.452165 8.552632 153 1430ft 36kts
06-Feb-17 04:42 47.450419 8.553659 328 1430ft 1kts
06-Feb-17 04:43 47.450436 8.553645 328 1430ft 0kts
06-Feb-17 04:44 47.468941 8.540592 334 1703ft 162kts
06-Feb-17 04:45 47.510496 8.512842 336 3886ft 182kts
06-Feb-17 04:46 47.552464 8.537716 87 5337ft 229kts
06-Feb-17 04:47 47.563331 8.631640 75 8062ft 238kts
06-Feb-17 04:48 47.560963 8.727413 137 10466ft 263kts
06-Feb-17 04:49 47.491660 8.796249 141 11514ft 336kts
06-Feb-17 04:50 47.451665 8.923053 98 13285ft 361kts
06-Feb-17 04:51 47.431436 9.071412 100 15443ft 375kts
06-Feb-17 04:52 47.409461 9.224966 94 17377ft 387kts
06-Feb-17 04:53 47.463425 9.351028 36 19134ft 388kts
06-Feb-17 04:54 47.553972 9.436767 17 20745ft 397kts
06-Feb-17 04:55 47.664808 9.455842 1 22237ft 407kts
06-Feb-17 04:56 47.778921 9.461718 2 23643ft 415kts
06-Feb-17 04:57 47.895453 9.462491 0 24926ft 423kts
06-Feb-17 04:58 48.013962 9.462186 0 26163ft 429kts
06-Feb-17 04:59 48.134225 9.462101 0 27280ft 436kts
06-Feb-17 05:00 48.256166 9.462051 0 28315ft 442kts
06-Feb-17 05:01 48.379714 9.462216 0 29315ft 445kts
06-Feb-17 05:02 48.503026 9.462404 0 30623ft 440kts
06-Feb-17 05:03 48.604761 9.461573 359 31577ft 438kts
06-Feb-17 05:04 48.745999 9.464276 7 32839ft 434kts
06-Feb-17 05:05 48.865437 9.493074 8 33722ft 432kts
06-Feb-17 05:06 48.984007 9.521257 8 33729ft 431kts
06-Feb-17 05:07 49.102502 9.549798 8 33733ft 431kts
06-Feb-17 05:08 49.221460 9.578559 8 33723ft 432kts
06-Feb-17 05:09 49.339607 9.607251 8 33722ft 432kts
06-Feb-17 05:10 49.458221 9.636122 8 33729ft 432kts
06-Feb-17 05:11 49.557370 9.660414 8 33750ft 431kts
06-Feb-17 05:12 49.675289 9.689455 8 33749ft 431kts
06-Feb-17 05:13 49.793976 9.718870 8 33727ft 431kts
06-Feb-17 05:14 49.932221 9.753196 8 33751ft 430kts
06-Feb-17 05:15 50.030538 9.777755 7 33730ft 430kts
06-Feb-17 05:16 50.148150 9.807305 7 33711ft 430kts
06-Feb-17 05:17 50.266305 9.837178 7 33692ft 430kts
06-Feb-17 05:18 50.384789 9.868549 13 33671ft 432kts
06-Feb-17 05:19 50.488769 9.962656 35 33679ft 438kts
06-Feb-17 05:20 50.587101 10.076054 33 33768ft 436kts
06-Feb-17 05:21 50.684924 10.188663 34 33754ft 435kts
06-Feb-17 05:22 50.782165 10.301047 34 33696ft 435kts
06-Feb-17 05:23 50.879871 10.414636 34 33670ft 435kts
06-Feb-17 05:24 50.978262 10.526404 32 33715ft 435kts
06-Feb-17 05:25 51.077066 10.638421 33 33753ft 436kts
06-Feb-17 05:26 51.175228 10.750289 33 33752ft 436kts
06-Feb-17 05:27 51.273870 10.863422 33 33754ft 435kts
06-Feb-17 05:28 51.371875 10.976292 33 33717ft 435kts
06-Feb-17 05:29 51.469654 11.089689 33 33714ft 434kts
06-Feb-17 05:30 51.567234 11.203319 33 33697ft 433kts
06-Feb-17 05:31 51.670434 11.301127 20 33686ft 428kts
06-Feb-17 05:32 51.779525 11.376010 21 33691ft 428kts
06-Feb-17 05:33 51.888981 11.453332 21 33768ft 427kts
06-Feb-17 05:34 51.997834 11.530485 21 33782ft 428kts
06-Feb-17 05:35 52.106821 11.607865 21 33747ft 428kts
06-Feb-17 05:36 52.215907 11.686001 21 33698ft 427kts
06-Feb-17 05:37 52.324572 11.764143 21 33698ft 427kts
06-Feb-17 05:38 52.433323 11.842795 21 33695ft 428kts
06-Feb-17 05:39 52.542066 11.921847 21 33743ft 429kts
06-Feb-17 05:40 52.651302 12.001668 21 33762ft 429kts
06-Feb-17 05:41 52.760139 12.081691 21 33763ft 428kts
06-Feb-17 05:42 52.869112 12.162182 22 33677ft 428kts
06-Feb-17 05:43 52.977896 12.243050 22 33676ft 430kts
06-Feb-17 05:44 53.087042 12.324603 22 33728ft 430kts
06-Feb-17 05:45 53.196139 12.406641 22 33741ft 431kts
06-Feb-17 05:46 53.305382 12.489122 22 33726ft 432kts
06-Feb-17 05:47 53.415093 12.572510 22 33721ft 432kts
06-Feb-17 05:48 53.524319 12.656014 22 33718ft 432kts
06-Feb-17 05:49 53.633466 12.739910 22 33703ft 432kts
06-Feb-17 05:50 53.742591 12.824230 22 33687ft 432kts
06-Feb-17 05:51 53.851917 12.909274 22 33680ft 431kts
06-Feb-17 05:52 53.960661 12.994277 22 33696ft 431kts
06-Feb-17 05:53 54.068961 13.079449 22 33665ft 431kts
06-Feb-17 05:54 54.177851 13.165704 22 33700ft 430kts
06-Feb-17 05:55 54.286255 13.251844 22 33687ft 429kts
06-Feb-17 05:56 54.394093 13.338194 22 33645ft 428kts
06-Feb-17 05:57 54.502353 13.425387 22 33604ft 429kts
06-Feb-17 05:58 54.609886 13.512413 22 33642ft 429kts
06-Feb-17 05:59 54.718030 13.600461 22 33659ft 429kts
06-Feb-17 06:00 54.825796 13.688837 22 33652ft 429kts
06-Feb-17 06:01 54.933274 13.778678 24 33640ft 429kts
06-Feb-17 06:02 55.039315 13.875971 24 33600ft 430kts
06-Feb-17 06:03 55.144958 13.973124 24 33566ft 430kts
06-Feb-17 06:04 55.250441 14.070933 24 33602ft 428kts
06-Feb-17 06:05 55.355544 14.168857 24 33561ft 428kts
06-Feb-17 06:06 55.460560 14.267362 24 33541ft 429kts
06-Feb-17 06:07 55.566034 14.366799 24 33506ft 429kts
06-Feb-17 06:08 55.671151 14.466629 24 33515ft 429kts
06-Feb-17 06:09 55.776072 14.566789 24 33512ft 428kts
06-Feb-17 06:10 55.880891 14.667493 24 33505ft 428kts
06-Feb-17 06:11 55.985480 14.768656 24 33520ft 428kts
06-Feb-17 06:12 56.090345 14.870662 24 33508ft 428kts
06-Feb-17 06:13 56.194694 14.972852 24 33528ft 427kts
06-Feb-17 06:14 56.298590 15.075188 24 33540ft 427kts
06-Feb-17 06:15 56.402954 15.178635 24 33534ft 427kts
06-Feb-17 06:16 56.506709 15.282174 24 33520ft 426kts
06-Feb-17 06:17 56.610750 15.386600 24 33489ft 426kts
06-Feb-17 06:18 56.714278 15.491217 24 33479ft 426kts
06-Feb-17 06:19 56.817703 15.596347 24 33451ft 426kts
06-Feb-17 06:20 56.920935 15.701990 24 33446ft 425kts
06-Feb-17 06:21 57.024084 15.808194 24 33403ft 425kts
06-Feb-17 06:22 57.126989 15.914839 24 33360ft 423kts
06-Feb-17 06:23 57.228599 16.020828 24 33360ft 419kts
06-Feb-17 06:24 57.331086 16.128424 24 33389ft 425kts
06-Feb-17 06:25 57.434171 16.237250 24 33383ft 425kts
06-Feb-17 06:26 57.536773 16.346439 24 33358ft 425kts
06-Feb-17 06:27 57.638278 16.460402 26 33336ft 427kts
06-Feb-17 06:28 57.739341 16.578284 26 33317ft 427kts
06-Feb-17 06:29 57.839935 16.696371 27 33275ft 428kts
06-Feb-17 06:30 57.940580 16.815400 27 33258ft 427kts
06-Feb-17 06:31 58.039082 16.932474 26 30885ft 421kts
06-Feb-17 06:32 58.138663 17.051860 27 27850ft 419kts
06-Feb-17 06:33 58.236120 17.169352 27 25107ft 410kts
06-Feb-17 06:34 58.331124 17.284629 27 22484ft 401kts
06-Feb-17 06:35 58.423269 17.397235 27 20123ft 390kts
06-Feb-17 06:36 58.513490 17.508085 27 17858ft 380kts
06-Feb-17 06:37 58.601096 17.616369 27 15714ft 370kts
06-Feb-17 06:38 58.686504 17.722597 27 13642ft 362kts
06-Feb-17 06:39 58.769768 17.826802 27 11536ft 353kts
06-Feb-17 06:40 58.854998 17.908354 9 9631ft 322kts
06-Feb-17 06:41 58.932773 17.951024 9 8692ft 267kts
06-Feb-17 06:42 59.002737 17.990942 9 7139ft 257kts
06-Feb-17 06:43 59.070247 18.029585 9 5573ft 249kts
06-Feb-17 06:44 59.135901 18.067326 8 4011ft 244kts
06-Feb-17 06:45 59.197176 18.069885 323 2534ft 209kts
06-Feb-17 06:46 59.247503 18.018426 325 2521ft 200kts
06-Feb-17 06:47 59.295944 17.969931 325 2517ft 181kts
06-Feb-17 06:48 59.339817 17.925824 325 2530ft 173kts
06-Feb-17 06:49 59.380855 17.884725 324 2517ft 158kts
06-Feb-17 06:50 59.422807 17.877490 0 2551ft 160kts
06-Feb-17 06:51 59.466137 17.892790 0 2523ft 158kts
06-Feb-17 06:52 59.509183 17.908379 359 2484ft 150kts
06-Feb-17 06:53 59.549347 17.922846 3 1704ft 147kts
06-Feb-17 06:54 59.589422 17.937414 5 922ft 145kts
06-Feb-17 06:55 59.628835 17.951750 5 164ft 143kts
06-Feb-17 06:56 59.646083 17.956221 337 151ft 17kts
06-Feb-17 06:57 59.647140 17.950386 241 151ft 21kts
06-Feb-17 06:58 59.643165 17.945295 239 151ft 7kts
06-Feb-17 06:59 59.642963 17.944613 239 151ft 0kts
06-Feb-17 07:00 59.642963 17.944613 239 151ft 0kts
06-Feb-17 07:01 59.642963 17.944612 239 151ft 0kts
06-Feb-17 07:02 59.642963 17.944611 239 151ft 0kts
06-Feb-17 07:03 59.642963 17.944611 239 151ft 0kts

Navigation Log

Ident Type
Flight plan parsing failed, navigation log unavailable